Time;durP1;ratioP1;P1;durP2;ratioP2;P2;SDS_P1;SDS_P2;PMS_P1;PMS_P2;Temp;Humidity;BMP_temperature;BMP_pressure;BME280_temperature;BME280_humidity;BME280_pressure;Samples;Min_cycle;Max_cycle;Signal;HPM_P1;HPM_P2
2023/05/08 00:01:55;;;;;;;17.75;7.93;;;;;;;;;;5056835;28;20029;-78
2023/05/08 00:04:20;;;;;;;17.15;7.28;;;;;;;;;;5040379;28;20070;-77
2023/05/08 00:06:46;;;;;;;17.23;8.20;;;;;;;;;;5056710;28;20052;-77
2023/05/08 00:09:12;;;;;;;18.35;7.45;;;;;;;;;;5039871;28;20451;-78
2023/05/08 00:11:37;;;;;;;18.55;7.80;;;;;;;;;;5074582;28;20461;-78
2023/05/08 00:14:03;;;;;;;16.35;8.20;;;;;;;;;;5039680;28;20097;-76
2023/05/08 00:16:28;;;;;;;17.95;7.88;;;;;;;;;;5039915;28;20070;-78
2023/05/08 00:18:54;;;;;;;16.92;8.60;;;;;;;;;;5056653;28;20123;-77
2023/05/08 00:21:19;;;;;;;18.13;7.72;;;;;;;;;;5056814;28;20115;-77
2023/05/08 00:23:45;;;;;;;18.42;8.48;;;;;;;;;;5056313;28;20457;-79
2023/05/08 00:26:10;;;;;;;13.82;7.00;;;;;;;;;;5056283;28;20028;-77
2023/05/08 00:28:36;;;;;;;16.35;7.40;;;;;;;;;;5056091;28;20024;-77
2023/05/08 00:31:01;;;;;;;13.70;7.03;;;;;;;;;;5039890;28;20024;-78
2023/05/08 00:33:27;;;;;;;16.02;7.30;;;;;;;;;;5031142;28;20025;-78
2023/05/08 00:35:58;;;;;;;16.27;7.18;;;;;;;;;;5016533;28;20046;-78
2023/05/08 00:38:23;;;;;;;12.35;7.15;;;;;;;;;;5000305;28;20037;-77
2023/05/08 00:40:49;;;;;;;15.10;7.53;;;;;;;;;;5016469;28;20033;-78
2023/05/08 00:43:14;;;;;;;14.13;7.15;;;;;;;;;;5052349;28;20025;-78
2023/05/08 00:45:40;;;;;;;15.80;7.90;;;;;;;;;;5019672;28;20033;-77
2023/05/08 00:48:06;;;;;;;17.67;8.07;;;;;;;;;;5019687;28;20083;-78
2023/05/08 00:50:31;;;;;;;14.43;7.72;;;;;;;;;;5036150;28;20033;-77
2023/05/08 00:52:57;;;;;;;13.95;7.72;;;;;;;;;;5019625;28;20032;-77
2023/05/08 00:55:22;;;;;;;18.02;7.18;;;;;;;;;;5003008;28;20037;-77
2023/05/08 00:57:48;;;;;;;13.13;7.07;;;;;;;;;;5036034;28;20025;-77
2023/05/08 01:00:16;;;;;;;12.38;6.57;;;;;;;;;;5036041;28;20075;-77
2023/05/08 01:02:41;;;;;;;14.82;7.45;;;;;;;;;;5016353;28;20075;-78
2023/05/08 01:05:07;;;;;;;13.93;6.95;;;;;;;;;;5032548;28;20052;-77
2023/05/08 01:07:32;;;;;;;15.00;7.38;;;;;;;;;;4999666;28;20462;-78
2023/05/08 01:09:58;;;;;;;11.10;6.25;;;;;;;;;;5032129;28;20426;-78
2023/05/08 01:12:39;;;;;;;12.27;6.30;;;;;;;;;;5033690;28;20036;-77
2023/05/08 01:15:12;;;;;;;13.77;6.97;;;;;;;;;;5033690;28;20034;-77
2023/05/08 01:18:05;;;;;;;12.32;6.85;;;;;;;;;;5017155;28;20116;-78
2023/05/08 01:20:37;;;;;;;15.15;7.40;;;;;;;;;;5016209;28;20032;-78
2023/05/08 01:23:27;;;;;;;18.00;7.80;;;;;;;;;;5032537;28;20032;-77
2023/05/08 01:26:30;;;;;;;15.97;8.43;;;;;;;;;;5033439;28;20136;-77
2023/05/08 01:29:30;;;;;;;16.80;7.63;;;;;;;;;;5032594;28;20026;-77
2023/05/08 01:32:01;;;;;;;15.70;7.22;;;;;;;;;;5032656;28;20091;-78
2023/05/08 01:34:30;;;;;;;18.77;7.82;;;;;;;;;;5033519;28;20052;-78
2023/05/08 01:37:03;;;;;;;17.15;7.55;;;;;;;;;;5013751;28;20040;-77
2023/05/08 01:39:31;;;;;;;13.48;7.50;;;;;;;;;;5032418;28;20025;-78
2023/05/08 01:42:25;;;;;;;19.52;8.10;;;;;;;;;;5033182;28;20120;-77
2023/05/08 01:45:14;;;;;;;16.77;8.18;;;;;;;;;;4990636;28;20422;-77
2023/05/08 01:47:39;;;;;;;16.05;8.13;;;;;;;;;;5032260;28;20029;-77
2023/05/08 01:50:15;;;;;;;16.95;7.88;;;;;;;;;;5015998;28;20025;-77
2023/05/08 01:52:52;;;;;;;13.70;7.20;;;;;;;;;;4999974;28;20344;-77
2023/05/08 01:55:25;;;;;;;18.08;8.18;;;;;;;;;;5015739;28;20043;-78
2023/05/08 01:57:53;;;;;;;15.13;7.75;;;;;;;;;;5016037;28;20120;-77
2023/05/08 02:00:20;;;;;;;18.27;7.90;;;;;;;;;;5015951;28;20030;-78
2023/05/08 02:02:46;;;;;;;14.98;7.65;;;;;;;;;;5015538;28;20128;-78
2023/05/08 02:05:12;;;;;;;20.50;8.07;;;;;;;;;;4999412;28;20032;-77
2023/05/08 02:07:37;;;;;;;15.90;7.55;;;;;;;;;;4999318;28;20025;-78
2023/05/08 02:10:03;;;;;;;13.52;7.57;;;;;;;;;;4998845;28;20076;-77
2023/05/08 02:12:30;;;;;;;18.48;8.00;;;;;;;;;;5015445;28;20041;-77
2023/05/08 02:14:55;;;;;;;16.65;7.80;;;;;;;;;;4999950;28;20026;-78
2023/05/08 02:17:20;;;;;;;16.38;7.55;;;;;;;;;;5015483;28;20029;-77
2023/05/08 02:19:46;;;;;;;16.17;8.15;;;;;;;;;;5016699;28;20021;-77
2023/05/08 02:22:12;;;;;;;17.77;7.95;;;;;;;;;;5037134;28;20026;-78
2023/05/08 02:24:38;;;;;;;15.50;8.00;;;;;;;;;;5019137;28;20415;-78
2023/05/08 02:27:04;;;;;;;14.80;7.65;;;;;;;;;;5019145;28;20132;-78
2023/05/08 02:29:29;;;;;;;20.17;8.35;;;;;;;;;;5002862;28;20037;-78
2023/05/08 02:31:55;;;;;;;17.58;7.75;;;;;;;;;;5019600;28;20032;-78
2023/05/08 02:34:20;;;;;;;16.45;8.13;;;;;;;;;;5035613;28;20052;-78
2023/05/08 02:36:46;;;;;;;17.17;7.70;;;;;;;;;;5017207;28;20472;-78
2023/05/08 02:39:12;;;;;;;14.82;8.02;;;;;;;;;;5014515;28;20034;-78
2023/05/08 02:41:38;;;;;;;19.77;8.20;;;;;;;;;;4983061;28;20099;-78
2023/05/08 02:44:03;;;;;;;18.00;8.13;;;;;;;;;;4999016;28;20431;-78
2023/05/08 02:46:35;;;;;;;16.95;7.80;;;;;;;;;;4982983;28;20083;-78
2023/05/08 02:49:11;;;;;;;22.42;8.63;;;;;;;;;;5018436;28;20059;-78
2023/05/08 02:52:04;;;;;;;17.27;7.90;;;;;;;;;;5002688;28;20924;-78
2023/05/08 02:54:34;;;;;;;21.95;8.18;;;;;;;;;;5020517;28;20041;-79
2023/05/08 02:57:18;;;;;;;;;;;;;;;;;;5018948;28;20033;-78
2023/05/08 02:59:55;;;;;;;20.17;8.10;;;;;;;;;;5035236;28;19970;-78
2023/05/08 03:02:53;;;;;;;24.00;9.05;;;;;;;;;;5022214;28;20041;-78
2023/05/08 03:05:23;;;;;;;15.18;7.72;;;;;;;;;;5005565;28;20122;-78
2023/05/08 03:07:50;;;;;;;23.17;8.50;;;;;;;;;;5038359;28;20032;-76
2023/05/08 03:10:15;;;;;;;18.60;8.00;;;;;;;;;;5021698;28;20051;-77
2023/05/08 03:12:48;;;;;;;17.85;8.15;;;;;;;;;;5021705;28;20525;-78
2023/05/08 03:15:25;;;;;;;17.02;8.32;;;;;;;;;;5021455;28;20037;-77
2023/05/08 03:17:55;;;;;;;18.23;8.10;;;;;;;;;;5021817;28;20037;-77
2023/05/08 03:20:20;;;;;;;22.55;10.45;;;;;;;;;;5021312;28;20541;-79
2023/05/08 03:22:47;;;;;;;23.50;12.55;;;;;;;;;;5004744;28;20033;-78
2023/05/08 03:25:13;;;;;;;23.95;11.55;;;;;;;;;;5037834;28;20075;-78
2023/05/08 03:27:38;;;;;;;20.50;10.77;;;;;;;;;;5037791;28;20437;-77
2023/05/08 03:30:05;;;;;;;19.98;10.05;;;;;;;;;;5037756;28;20091;-79
2023/05/08 03:32:31;;;;;;;27.95;9.50;;;;;;;;;;5036759;28;20028;-79
2023/05/08 03:34:57;;;;;;;21.95;8.45;;;;;;;;;;5021338;28;20128;-80
2023/05/08 03:37:23;;;;;;;18.42;8.13;;;;;;;;;;5020628;28;20104;-78
2023/05/08 03:39:50;;;;;;;23.85;8.90;;;;;;;;;;5037277;28;20025;-78
2023/05/08 03:42:20;;;;;;;25.27;8.57;;;;;;;;;;5020880;28;20466;-79
2023/05/08 03:44:51;;;;;;;35.53;10.82;;;;;;;;;;5022071;28;20090;-78
2023/05/08 03:47:17;;;;;;;24.65;11.00;;;;;;;;;;5037308;28;20534;-79
2023/05/08 03:49:44;;;;;;;27.38;9.70;;;;;;;;;;5037244;28;20067;-79
2023/05/08 03:52:11;;;;;;;21.67;9.82;;;;;;;;;;5020479;28;20025;-78
2023/05/08 03:54:36;;;;;;;24.65;10.00;;;;;;;;;;5037140;28;20029;-78
2023/05/08 03:57:02;;;;;;;22.23;9.70;;;;;;;;;;5037039;28;20029;-79
2023/05/08 03:59:36;;;;;;;27.77;11.07;;;;;;;;;;5054848;28;20020;-79
2023/05/08 04:02:36;;;;;;;26.00;10.07;;;;;;;;;;5054242;28;20477;-78
2023/05/08 04:05:33;;;;;;;19.23;9.75;;;;;;;;;;5050388;28;20048;-78
2023/05/08 04:08:21;;;;;;;20.75;9.82;;;;;;;;;;5021876;28;20052;-79
2023/05/08 04:11:13;;;;;;;27.40;11.38;;;;;;;;;;5020520;28;20127;-79
2023/05/08 04:13:42;;;;;;;26.23;11.27;;;;;;;;;;5022954;28;20028;-78
2023/05/08 04:16:13;;;;;;;26.25;10.90;;;;;;;;;;5020198;28;20036;-79
2023/05/08 04:18:43;;;;;;;22.88;10.43;;;;;;;;;;5053468;28;20025;-79
2023/05/08 04:21:09;;;;;;;30.10;12.52;;;;;;;;;;5053275;28;20031;-79
2023/05/08 04:23:35;;;;;;;43.88;14.15;;;;;;;;;;5053444;28;20020;-79
2023/05/08 04:26:00;;;;;;;30.95;13.27;;;;;;;;;;5020057;28;20031;-78
2023/05/08 04:28:26;;;;;;;37.70;15.77;;;;;;;;;;5020059;28;20159;-79
2023/05/08 04:30:51;;;;;;;46.90;19.45;;;;;;;;;;5019986;28;20017;-79
2023/05/08 04:33:17;;;;;;;45.55;19.27;;;;;;;;;;5003530;28;20029;-79
2023/05/08 04:35:45;;;;;;;38.67;17.77;;;;;;;;;;5036423;28;20035;-79
2023/05/08 04:38:10;;;;;;;30.15;14.70;;;;;;;;;;5036703;28;20334;-79
2023/05/08 04:40:35;;;;;;;30.75;15.05;;;;;;;;;;5054138;28;20021;-79
2023/05/08 04:43:01;;;;;;;29.98;14.57;;;;;;;;;;5003757;28;20029;-79
2023/05/08 04:45:26;;;;;;;35.95;15.65;;;;;;;;;;5036267;28;20032;-79
2023/05/08 04:47:51;;;;;;;38.85;15.40;;;;;;;;;;5053992;28;20024;-79
2023/05/08 04:50:17;;;;;;;40.08;16.30;;;;;;;;;;5035943;28;20036;-79
2023/05/08 04:52:42;;;;;;;37.33;16.50;;;;;;;;;;5019701;28;20036;-79
2023/05/08 04:55:08;;;;;;;33.28;14.98;;;;;;;;;;5053782;28;20076;-79
2023/05/08 04:57:33;;;;;;;38.85;16.15;;;;;;;;;;5053850;28;20036;-78
2023/05/08 04:59:59;;;;;;;33.88;15.30;;;;;;;;;;5053813;28;20431;-79
2023/05/08 05:02:25;;;;;;;41.03;14.90;;;;;;;;;;5035900;28;20053;-78
2023/05/08 05:04:50;;;;;;;35.15;14.63;;;;;;;;;;5035819;28;20029;-79
2023/05/08 05:07:16;;;;;;;34.60;13.95;;;;;;;;;;5053816;28;20025;-79
2023/05/08 05:09:41;;;;;;;26.20;12.43;;;;;;;;;;5036183;28;20032;-79
2023/05/08 05:12:06;;;;;;;29.45;12.43;;;;;;;;;;5036029;28;20064;-79
2023/05/08 05:14:32;;;;;;;25.83;11.32;;;;;;;;;;5035879;28;20037;-79
2023/05/08 05:16:57;;;;;;;26.50;11.25;;;;;;;;;;5019512;28;20439;-80
2023/05/08 05:19:23;;;;;;;27.60;10.85;;;;;;;;;;5019177;28;20025;-78
2023/05/08 05:21:48;;;;;;;27.48;11.07;;;;;;;;;;5053518;28;20056;-78
2023/05/08 05:24:13;;;;;;;21.55;10.55;;;;;;;;;;5052630;28;20386;-79
2023/05/08 05:26:39;;;;;;;28.05;10.75;;;;;;;;;;5035695;28;20435;-79
2023/05/08 05:29:05;;;;;;;22.48;10.18;;;;;;;;;;5019550;28;20033;-79
2023/05/08 05:31:30;;;;;;;20.98;10.23;;;;;;;;;;5052549;28;20032;-79
2023/05/08 05:33:56;;;;;;;26.00;10.57;;;;;;;;;;5002600;28;20029;-79
2023/05/08 05:36:21;;;;;;;26.23;11.23;;;;;;;;;;5019090;28;20447;-79
2023/05/08 05:38:47;;;;;;;34.20;12.80;;;;;;;;;;5053433;28;20104;-79
2023/05/08 05:41:12;;;;;;;34.00;13.00;;;;;;;;;;5035938;28;20037;-79
2023/05/08 05:43:38;;;;;;;34.95;13.52;;;;;;;;;;5051964;28;20064;-79
2023/05/08 05:46:07;;;;;;;29.67;13.35;;;;;;;;;;5051510;28;20119;-79
2023/05/08 05:48:32;;;;;;;27.10;12.52;;;;;;;;;;5050982;28;20509;-79
2023/05/08 05:50:58;;;;;;;34.92;13.48;;;;;;;;;;5034908;28;20103;-79
2023/05/08 05:53:23;;;;;;;26.48;11.93;;;;;;;;;;5035242;28;20382;-78
2023/05/08 05:55:48;;;;;;;25.58;12.00;;;;;;;;;;5021890;28;20383;-79
2023/05/08 05:58:15;;;;;;;29.00;11.63;;;;;;;;;;5039270;28;20040;-79
2023/05/08 06:00:41;;;;;;;30.88;13.35;;;;;;;;;;5057095;28;20028;-78
2023/05/08 06:03:06;;;;;;;31.02;12.90;;;;;;;;;;5022716;28;20052;-79
2023/05/08 06:05:32;;;;;;;33.25;12.80;;;;;;;;;;5037714;28;20036;-79
2023/05/08 06:07:58;;;;;;;31.48;13.18;;;;;;;;;;5037790;28;20335;-79
2023/05/08 06:10:23;;;;;;;29.38;14.52;;;;;;;;;;5055336;28;20473;-79
2023/05/08 06:12:49;;;;;;;31.13;11.65;;;;;;;;;;5037505;28;20082;-80
2023/05/08 06:15:14;;;;;;;32.50;12.15;;;;;;;;;;5037019;28;20037;-79
2023/05/08 06:17:40;;;;;;;23.55;11.38;;;;;;;;;;5054237;28;20036;-79
2023/05/08 06:20:06;;;;;;;32.72;12.02;;;;;;;;;;5021732;28;20030;-78
2023/05/08 06:22:31;;;;;;;33.03;12.77;;;;;;;;;;5055570;28;20024;-78
2023/05/08 06:24:57;;;;;;;25.25;11.80;;;;;;;;;;5038853;28;20029;-80
2023/05/08 06:27:22;;;;;;;21.58;10.85;;;;;;;;;;5038823;28;20044;-79
2023/05/08 06:29:54;;;;;;;21.52;10.65;;;;;;;;;;5038482;28;20078;-78
2023/05/08 06:32:20;;;;;;;24.25;11.00;;;;;;;;;;5038972;28;20021;-79
2023/05/08 06:34:45;;;;;;;25.85;11.07;;;;;;;;;;5038725;28;20144;-79
2023/05/08 06:37:11;;;;;;;28.45;10.75;;;;;;;;;;5038818;28;20025;-78
2023/05/08 06:39:36;;;;;;;27.75;9.93;;;;;;;;;;5056402;28;20370;-78
2023/05/08 06:42:03;;;;;;;24.60;10.63;;;;;;;;;;5038645;28;20446;-79
2023/05/08 06:44:29;;;;;;;27.48;11.75;;;;;;;;;;5038645;28;20454;-79
2023/05/08 06:46:54;;;;;;;24.92;11.50;;;;;;;;;;5038348;28;20085;-78
2023/05/08 06:49:20;;;;;;;28.20;11.05;;;;;;;;;;5022184;28;20037;-79
2023/05/08 06:51:45;;;;;;;24.33;11.40;;;;;;;;;;5021897;28;20029;-78
2023/05/08 06:54:11;;;;;;;22.85;11.20;;;;;;;;;;5021695;28;20091;-79
2023/05/08 06:56:36;;;;;;;27.55;10.93;;;;;;;;;;5055313;28;20037;-79
2023/05/08 06:59:02;;;;;;;23.38;11.50;;;;;;;;;;5055976;28;20032;-79
2023/05/08 07:01:27;;;;;;;23.00;11.32;;;;;;;;;;5071590;28;20037;-79
2023/05/08 07:03:53;;;;;;;25.75;11.52;;;;;;;;;;5021430;28;20167;-79
2023/05/08 07:06:18;;;;;;;27.02;11.25;;;;;;;;;;5036902;28;20112;-79
2023/05/08 07:08:44;;;;;;;24.13;11.85;;;;;;;;;;5005207;28;20373;-80
2023/05/08 07:11:09;;;;;;;23.17;11.13;;;;;;;;;;5021365;28;20033;-79
2023/05/08 07:13:35;;;;;;;24.00;12.55;;;;;;;;;;5055444;28;20114;-78
2023/05/08 07:16:00;;;;;;;24.58;11.52;;;;;;;;;;5021245;28;20086;-79
2023/05/08 07:18:26;;;;;;;29.23;11.43;;;;;;;;;;5021513;28;20116;-79
2023/05/08 07:20:51;;;;;;;28.17;12.25;;;;;;;;;;5038032;28;20431;-79
2023/05/08 07:23:17;;;;;;;28.67;12.73;;;;;;;;;;5037632;28;20029;-77
2023/05/08 07:25:42;;;;;;;24.00;11.32;;;;;;;;;;5005054;28;20025;-80
2023/05/08 07:28:08;;;;;;;22.65;11.13;;;;;;;;;;5020934;28;20025;-80
2023/05/08 07:30:33;;;;;;;27.17;12.18;;;;;;;;;;5037297;28;20382;-80
2023/05/08 07:32:59;;;;;;;27.63;11.10;;;;;;;;;;5037817;28;20167;-79
2023/05/08 07:35:24;;;;;;;23.55;11.38;;;;;;;;;;5020857;28;20426;-79
2023/05/08 07:37:49;;;;;;;20.85;11.57;;;;;;;;;;5055248;28;20096;-78
2023/05/08 07:40:15;;;;;;;29.58;11.50;;;;;;;;;;5037460;28;20021;-79
2023/05/08 07:42:41;;;;;;;23.70;10.43;;;;;;;;;;5020628;28;20395;-78
2023/05/08 07:45:08;;;;;;;25.80;10.32;;;;;;;;;;5020674;28;20696;-80
2023/05/08 07:47:33;;;;;;;21.98;10.73;;;;;;;;;;5054083;28;20442;-78
2023/05/08 07:49:58;;;;;;;23.67;10.35;;;;;;;;;;5053966;28;20038;-80
2023/05/08 07:52:24;;;;;;;21.33;11.00;;;;;;;;;;5035234;28;20382;-79
2023/05/08 07:54:49;;;;;;;22.00;10.38;;;;;;;;;;5036983;28;20115;-79
2023/05/08 07:57:15;;;;;;;21.30;10.40;;;;;;;;;;5053689;28;20035;-78
2023/05/08 07:59:40;;;;;;;22.75;10.38;;;;;;;;;;5054910;28;20024;-79
2023/05/08 08:02:06;;;;;;;19.20;10.45;;;;;;;;;;5034438;28;20073;-79
2023/05/08 08:04:31;;;;;;;24.65;10.80;;;;;;;;;;5054768;28;20119;-80
2023/05/08 08:06:57;;;;;;;24.02;11.63;;;;;;;;;;5004229;28;20028;-80
2023/05/08 08:09:22;;;;;;;21.95;11.32;;;;;;;;;;5020406;28;20025;-78
2023/05/08 08:11:48;;;;;;;25.58;11.75;;;;;;;;;;5036640;28;20025;-79
2023/05/08 08:14:13;;;;;;;18.98;10.65;;;;;;;;;;5020337;28;20036;-79
2023/05/08 08:16:39;;;;;;;23.25;11.32;;;;;;;;;;5036932;28;20033;-79
2023/05/08 08:19:04;;;;;;;22.83;11.15;;;;;;;;;;5019868;28;20036;-79
2023/05/08 08:21:30;;;;;;;23.00;11.18;;;;;;;;;;5020066;28;20032;-79
2023/05/08 08:23:56;;;;;;;22.48;10.50;;;;;;;;;;5020453;28;20094;-80
2023/05/08 08:26:21;;;;;;;18.30;10.50;;;;;;;;;;5019971;28;20040;-79
2023/05/08 08:28:47;;;;;;;22.63;9.93;;;;;;;;;;5054583;28;20039;-78
2023/05/08 08:31:12;;;;;;;22.88;9.93;;;;;;;;;;5036453;28;20025;-77
2023/05/08 08:33:37;;;;;;;18.15;10.27;;;;;;;;;;5054016;28;20056;-79
2023/05/08 08:36:03;;;;;;;27.02;10.05;;;;;;;;;;5019811;28;20029;-79
2023/05/08 08:38:28;;;;;;;22.15;9.93;;;;;;;;;;5003416;28;20033;-77
2023/05/08 08:40:54;;;;;;;18.63;9.80;;;;;;;;;;5019734;28;20028;-87
2023/05/08 08:43:19;;;;;;;18.27;9.25;;;;;;;;;;5019969;28;20032;-78
2023/05/08 08:45:45;;;;;;;23.17;9.68;;;;;;;;;;5019690;28;20051;-77
2023/05/08 08:48:11;;;;;;;17.80;9.80;;;;;;;;;;5053957;28;20029;-77
2023/05/08 08:50:39;;;;;;;16.10;9.43;;;;;;;;;;5004198;28;20143;-76
2023/05/08 08:53:16;;;;;;;17.75;9.10;;;;;;;;;;5019241;28;20036;-77
2023/05/08 08:55:43;;;;;;;16.95;9.68;;;;;;;;;;5019818;28;20095;-78
2023/05/08 08:58:26;;;;;;;16.30;9.20;;;;;;;;;;5036059;28;20028;-79
2023/05/08 09:00:53;;;;;;;17.05;8.52;;;;;;;;;;5054079;28;20024;-78
2023/05/08 09:03:18;;;;;;;16.92;8.55;;;;;;;;;;5019753;28;20048;-78
2023/05/08 09:05:45;;;;;;;20.10;10.02;;;;;;;;;;5036014;28;20029;-78
2023/05/08 09:08:11;;;;;;;24.38;9.73;;;;;;;;;;5036052;28;20116;-77
2023/05/08 09:10:37;;;;;;;19.75;8.77;;;;;;;;;;5035645;28;20124;-79
2023/05/08 09:13:03;;;;;;;15.23;8.40;;;;;;;;;;5019458;28;20051;-79
2023/05/08 09:15:30;;;;;;;17.13;8.90;;;;;;;;;;5019617;28;20036;-76
2023/05/08 09:17:56;;;;;;;20.33;8.75;;;;;;;;;;5019462;28;20029;-78
2023/05/08 09:20:21;;;;;;;15.68;8.38;;;;;;;;;;5035882;28;20036;-79
2023/05/08 09:22:47;;;;;;;14.32;8.45;;;;;;;;;;5019439;28;20094;-79
2023/05/08 09:25:12;;;;;;;18.90;8.27;;;;;;;;;;5019129;28;20040;-78
2023/05/08 09:27:38;;;;;;;17.23;8.25;;;;;;;;;;5035716;28;20138;-78
2023/05/08 09:30:04;;;;;;;12.48;7.85;;;;;;;;;;5021409;28;20198;-78
2023/05/08 09:32:30;;;;;;;15.68;7.63;;;;;;;;;;5039829;28;20116;-77
2023/05/08 09:34:56;;;;;;;18.23;8.48;;;;;;;;;;5007160;28;20123;-79
2023/05/08 09:37:21;;;;;;;17.65;7.55;;;;;;;;;;5006997;28;20439;-79
2023/05/08 09:39:46;;;;;;;13.27;7.43;;;;;;;;;;5039395;28;20027;-79
2023/05/08 09:42:12;;;;;;;19.50;8.15;;;;;;;;;;5039965;28;20363;-78
2023/05/08 09:44:48;;;;;;;18.77;7.57;;;;;;;;;;5039563;28;20035;-78
2023/05/08 09:47:24;;;;;;;15.43;7.57;;;;;;;;;;5023344;28;20032;-79
2023/05/08 09:50:08;;;;;;;16.95;8.05;;;;;;;;;;5023160;28;20465;-78
2023/05/08 09:52:35;;;;;;;16.05;8.00;;;;;;;;;;5022956;28;20029;-78
2023/05/08 09:55:08;;;;;;;14.98;7.20;;;;;;;;;;5039275;28;20033;-79
2023/05/08 09:57:37;;;;;;;16.45;7.78;;;;;;;;;;5021738;28;20402;-78
2023/05/08 10:00:12;;;;;;;16.00;7.88;;;;;;;;;;5023681;28;20029;-77
2023/05/08 10:02:40;;;;;;;21.02;8.45;;;;;;;;;;5023524;28;20072;-79
2023/05/08 10:05:23;;;;;;;11.73;7.40;;;;;;;;;;5022801;28;20021;-79
2023/05/08 10:07:49;;;;;;;16.10;7.97;;;;;;;;;;5022621;28;20029;-79
2023/05/08 10:10:15;;;;;;;16.45;8.32;;;;;;;;;;5022640;28;20466;-79
2023/05/08 10:12:41;;;;;;;16.13;8.27;;;;;;;;;;5022663;28;20410;-79
2023/05/08 10:15:07;;;;;;;17.60;9.00;;;;;;;;;;5006532;28;20029;-80
2023/05/08 10:17:39;;;;;;;16.08;8.85;;;;;;;;;;5022258;28;20123;-79
2023/05/08 10:20:06;;;;;;;19.83;9.55;;;;;;;;;;5022915;28;20532;-79
2023/05/08 10:22:32;;;;;;;20.58;9.68;;;;;;;;;;5020446;28;20361;-79
2023/05/08 10:24:58;;;;;;;21.45;9.63;;;;;;;;;;5054615;28;20094;-79
2023/05/08 10:28:00;;;;;;;17.88;9.52;;;;;;;;;;5004632;28;20036;-79
2023/05/08 10:30:25;;;;;;;21.20;9.60;;;;;;;;;;5037905;28;20086;-79
2023/05/08 10:32:54;;;;;;;19.05;10.32;;;;;;;;;;5020827;28;20025;-79
2023/05/08 10:35:19;;;;;;;16.05;9.20;;;;;;;;;;5037318;28;20120;-79
2023/05/08 10:37:45;;;;;;;25.30;10.15;;;;;;;;;;5036835;28;20442;-79
2023/05/08 10:40:10;;;;;;;27.90;10.57;;;;;;;;;;5037466;28;20501;-79
2023/05/08 10:42:36;;;;;;;44.63;11.77;;;;;;;;;;5038810;28;20115;-79
2023/05/08 10:45:05;;;;;;;21.67;9.52;;;;;;;;;;5037201;28;20454;-79
2023/05/08 10:48:01;;;;;;;20.38;10.25;;;;;;;;;;5004495;28;20025;-79
2023/05/08 10:50:52;;;;;;;16.02;9.25;;;;;;;;;;5054634;28;20116;-78
2023/05/08 10:53:39;;;;;;;21.30;9.93;;;;;;;;;;5039701;28;20508;-79
2023/05/08 10:56:05;;;;;;;19.25;10.10;;;;;;;;;;5036776;28;20036;-80
2023/05/08 10:58:31;;;;;;;20.38;9.88;;;;;;;;;;5035299;28;20083;-80
2023/05/08 11:00:58;;;;;;;21.50;9.93;;;;;;;;;;5021812;28;20029;-79
2023/05/08 11:03:24;;;;;;;22.27;9.95;;;;;;;;;;5035060;28;20049;-79
2023/05/08 11:05:51;;;;;;;16.55;9.52;;;;;;;;;;5018316;28;20432;-79
2023/05/08 11:08:17;;;;;;;20.17;9.48;;;;;;;;;;5021113;28;20029;-80
2023/05/08 11:10:45;;;;;;;17.77;9.50;;;;;;;;;;5056077;28;20064;-79
2023/05/08 11:13:11;;;;;;;21.73;9.90;;;;;;;;;;5022106;28;20479;-79
2023/05/08 11:15:37;;;;;;;18.33;9.88;;;;;;;;;;5021525;28;20167;-79
2023/05/08 11:18:04;;;;;;;25.23;9.98;;;;;;;;;;5021608;28;20025;-80
2023/05/08 11:20:40;;;;;;;17.92;10.15;;;;;;;;;;5055569;28;20025;-80
2023/05/08 11:23:22;;;;;;;25.52;12.00;;;;;;;;;;5038006;28;20186;-78
2023/05/08 11:25:48;;;;;;;25.35;11.57;;;;;;;;;;5021480;28;20025;-79
2023/05/08 11:28:15;;;;;;;23.95;11.70;;;;;;;;;;5021239;28;20032;-79
2023/05/08 11:30:42;;;;;;;26.13;12.27;;;;;;;;;;5021340;28;20378;-78
2023/05/08 11:33:08;;;;;;;25.30;10.57;;;;;;;;;;5005260;28;20355;-79
2023/05/08 11:35:52;;;;;;;29.50;12.05;;;;;;;;;;5055271;28;20029;-79
2023/05/08 11:38:21;;;;;;;28.98;12.07;;;;;;;;;;5021190;28;20474;-79
2023/05/08 11:40:59;;;;;;;31.00;12.40;;;;;;;;;;5055565;28;20031;-79
2023/05/08 11:43:37;;;;;;;31.02;14.15;;;;;;;;;;5021331;28;20360;-79
2023/05/08 11:46:20;;;;;;;23.92;12.50;;;;;;;;;;5055345;28;20029;-78
2023/05/08 11:48:46;;;;;;;21.05;11.00;;;;;;;;;;5040061;28;20082;-80
2023/05/08 11:51:12;;;;;;;23.98;12.43;;;;;;;;;;5021128;28;20120;-79
2023/05/08 11:53:38;;;;;;;22.38;12.52;;;;;;;;;;5020576;28;20029;-79
2023/05/08 11:56:04;;;;;;;25.77;13.25;;;;;;;;;;5020722;28;20033;-79
2023/05/08 11:58:30;;;;;;;31.00;14.07;;;;;;;;;;5020869;28;20036;-79
2023/05/08 12:00:56;;;;;;;30.23;13.23;;;;;;;;;;5035078;28;20451;-80
2023/05/08 12:03:23;;;;;;;31.80;13.80;;;;;;;;;;5036768;28;20049;-79
2023/05/08 12:05:49;;;;;;;32.67;13.73;;;;;;;;;;5004924;28;20362;-78
2023/05/08 12:08:15;;;;;;;34.05;13.77;;;;;;;;;;5020676;28;20029;-78
2023/05/08 12:10:55;;;;;;;30.52;14.07;;;;;;;;;;5020723;28;20028;-78
2023/05/08 12:13:21;;;;;;;35.75;13.90;;;;;;;;;;5005423;28;20094;-79
2023/05/08 12:15:54;;;;;;;29.80;13.80;;;;;;;;;;5036774;28;20033;-79
2023/05/08 12:18:20;;;;;;;27.17;14.20;;;;;;;;;;5036674;28;20104;-79
2023/05/08 12:20:45;;;;;;;29.25;14.90;;;;;;;;;;5036908;28;20519;-79
2023/05/08 12:23:11;;;;;;;29.42;14.57;;;;;;;;;;5020332;28;20036;-79
2023/05/08 12:25:37;;;;;;;34.00;15.68;;;;;;;;;;5020504;28;20386;-78
2023/05/08 12:28:04;;;;;;;35.80;14.52;;;;;;;;;;5020597;28;20109;-79
2023/05/08 12:30:30;;;;;;;41.67;15.55;;;;;;;;;;5036591;28;20037;-79
2023/05/08 12:32:55;;;;;;;34.22;14.82;;;;;;;;;;5036290;28;20091;-79
2023/05/08 12:35:21;;;;;;;35.15;15.70;;;;;;;;;;5054246;28;20033;-79
2023/05/08 12:37:46;;;;;;;33.15;13.35;;;;;;;;;;5003749;28;20040;-79
2023/05/08 12:40:25;;;;;;;32.85;14.88;;;;;;;;;;5036673;28;20025;-80
2023/05/08 12:42:51;;;;;;;32.55;14.88;;;;;;;;;;5036572;28;20091;-79
2023/05/08 12:45:23;;;;;;;29.30;14.15;;;;;;;;;;5020629;28;20021;-79
2023/05/08 12:47:50;;;;;;;31.27;14.02;;;;;;;;;;5036731;28;20029;-79
2023/05/08 12:50:15;;;;;;;39.90;15.93;;;;;;;;;;5020082;28;20047;-79
2023/05/08 12:52:41;;;;;;;45.90;16.58;;;;;;;;;;5003787;28;20553;-79
2023/05/08 12:55:22;;;;;;;37.88;15.75;;;;;;;;;;5036259;28;20112;-79
2023/05/08 12:57:48;;;;;;;32.80;14.88;;;;;;;;;;5020062;28;20375;-78
2023/05/08 13:00:15;;;;;;;34.45;14.48;;;;;;;;;;5019893;28;20032;-79
2023/05/08 13:02:51;;;;;;;36.22;14.07;;;;;;;;;;5018143;28;20375;-79
2023/05/08 13:05:20;;;;;;;30.35;14.40;;;;;;;;;;4999745;28;20033;-79
2023/05/08 13:07:46;;;;;;;30.63;13.43;;;;;;;;;;4996817;28;20033;-78
2023/05/08 13:10:11;;;;;;;32.75;14.20;;;;;;;;;;4998519;28;20030;-79
2023/05/08 13:12:37;;;;;;;30.30;13.95;;;;;;;;;;5013070;28;20025;-79
2023/05/08 13:15:03;;;;;;;35.38;14.10;;;;;;;;;;4997343;28;20029;-79
2023/05/08 13:17:29;;;;;;;30.48;14.68;;;;;;;;;;4980736;28;20440;-79
2023/05/08 13:19:54;;;;;;;29.45;13.65;;;;;;;;;;5013125;28;20029;-79
2023/05/08 13:22:21;;;;;;;29.70;14.07;;;;;;;;;;4999672;28;20029;-78
2023/05/08 13:24:47;;;;;;;31.25;14.10;;;;;;;;;;5013178;28;20030;-79
2023/05/08 13:27:13;;;;;;;31.40;14.45;;;;;;;;;;5015076;28;20030;-79
2023/05/08 13:29:39;;;;;;;28.42;14.57;;;;;;;;;;5033700;28;20025;-79
2023/05/08 13:32:04;;;;;;;36.58;14.07;;;;;;;;;;4981614;28;20363;-79
2023/05/08 13:34:30;;;;;;;34.63;15.13;;;;;;;;;;4996524;28;20368;-79
2023/05/08 13:36:55;;;;;;;35.13;14.68;;;;;;;;;;5030160;28;20136;-78
2023/05/08 13:39:21;;;;;;;28.75;14.73;;;;;;;;;;5016051;28;20033;-78
2023/05/08 13:41:46;;;;;;;34.65;14.55;;;;;;;;;;5013286;28;20033;-79
2023/05/08 13:44:11;;;;;;;36.13;15.45;;;;;;;;;;5014838;28;20359;-78
2023/05/08 13:46:37;;;;;;;32.95;14.90;;;;;;;;;;5033451;28;20026;-79
2023/05/08 13:49:02;;;;;;;33.55;15.00;;;;;;;;;;5033667;28;20021;-79
2023/05/08 13:51:28;;;;;;;37.15;15.35;;;;;;;;;;5033697;28;20451;-79
2023/05/08 13:53:53;;;;;;;33.72;16.92;;;;;;;;;;4996674;28;20374;-79
2023/05/08 13:56:18;;;;;;;38.78;14.57;;;;;;;;;;4999183;28;20041;-79
2023/05/08 13:58:44;;;;;;;34.08;14.75;;;;;;;;;;4996264;28;20041;-79
2023/05/08 14:01:09;;;;;;;31.70;14.35;;;;;;;;;;4997634;28;20017;-78
2023/05/08 14:03:35;;;;;;;35.15;14.98;;;;;;;;;;4996190;28;20092;-79
2023/05/08 14:06:00;;;;;;;41.80;14.48;;;;;;;;;;5029725;28;20053;-79
2023/05/08 14:08:26;;;;;;;28.75;13.63;;;;;;;;;;5002924;28;20033;-78
2023/05/08 14:10:51;;;;;;;30.17;14.50;;;;;;;;;;5035645;28;20470;-79
2023/05/08 14:13:16;;;;;;;33.30;14.63;;;;;;;;;;5019088;28;20025;-79
2023/05/08 14:15:42;;;;;;;30.83;13.20;;;;;;;;;;5020019;28;20032;-79
2023/05/08 14:18:07;;;;;;;40.05;14.70;;;;;;;;;;5039373;28;20088;-78
2023/05/08 14:20:33;;;;;;;35.42;13.57;;;;;;;;;;5039198;28;20057;-78
2023/05/08 14:22:58;;;;;;;26.20;13.48;;;;;;;;;;5057156;28;20025;-79
2023/05/08 14:25:24;;;;;;;30.73;13.07;;;;;;;;;;5056894;28;20025;-79
2023/05/08 14:27:49;;;;;;;25.63;13.52;;;;;;;;;;5056904;28;20055;-78
2023/05/08 14:30:15;;;;;;;31.08;14.07;;;;;;;;;;5038898;28;20466;-79